createdAt,value
2023-03-29T00:00:16.894Z,66.85
2023-03-29T00:03:05.038Z,67.19
2023-03-29T00:05:36.173Z,67.17
2023-03-29T00:08:04.738Z,67.32
2023-03-29T00:10:34.247Z,67.23
2023-03-29T00:13:03.226Z,67.14
2023-03-29T00:15:31.395Z,67.05
2023-03-29T00:17:59.432Z,67.01
2023-03-29T00:20:28.922Z,67.46
2023-03-29T00:22:57.067Z,67.33
2023-03-29T00:25:25.165Z,67.07
2023-03-29T00:27:53.331Z,67.73
2023-03-29T00:30:21.285Z,67.80
2023-03-29T00:32:49.267Z,67.39
2023-03-29T00:35:17.422Z,67.64
2023-03-29T00:37:47.165Z,68.13
2023-03-29T00:40:15.515Z,67.73
2023-03-29T00:42:46.670Z,67.38
2023-03-29T00:45:30.479Z,67.81
2023-03-29T00:48:02.967Z,67.88
2023-03-29T00:50:37.991Z,67.51
2023-03-29T00:53:13.116Z,68.26
2023-03-29T00:55:47.912Z,67.93
2023-03-29T00:58:21.475Z,67.80
2023-03-29T01:00:58.043Z,67.97
2023-03-29T01:03:33.059Z,67.88
2023-03-29T01:06:06.014Z,67.95
2023-03-29T01:09:01.200Z,68.46
2023-03-29T01:11:39.758Z,68.17
2023-03-29T01:14:18.347Z,68.36
2023-03-29T01:16:46.713Z,68.60
2023-03-29T01:19:21.752Z,68.30
2023-03-29T01:21:56.064Z,68.67
2023-03-29T01:24:42.081Z,68.57
2023-03-29T01:27:32.298Z,68.73
2023-03-29T01:30:08.970Z,68.43
2023-03-29T01:32:52.097Z,68.80
2023-03-29T01:35:26.920Z,68.75
2023-03-29T01:38:08.844Z,68.70
2023-03-29T01:40:36.933Z,68.97
2023-03-29T01:43:30.836Z,68.97
2023-03-29T01:46:15.056Z,68.73
2023-03-29T01:49:02.195Z,68.98
2023-03-29T01:51:38.143Z,68.87
2023-03-29T01:54:21.468Z,69.08
2023-03-29T01:56:52.275Z,69.31
2023-03-29T01:59:26.279Z,69.10
2023-03-29T02:02:00.090Z,69.01
2023-03-29T02:04:34.715Z,69.47
2023-03-29T02:07:06.119Z,69.13
2023-03-29T02:09:37.270Z,69.08
2023-03-29T02:12:08.011Z,69.32
2023-03-29T02:14:36.489Z,69.17
2023-03-29T02:17:16.999Z,68.93
2023-03-29T02:19:51.600Z,69.48
2023-03-29T02:22:27.000Z,69.13
2023-03-29T02:24:59.367Z,69.45
2023-03-29T02:27:29.644Z,69.18
2023-03-29T02:29:58.726Z,69.13
2023-03-29T02:32:35.319Z,69.52
2023-03-29T02:35:19.109Z,69.38
2023-03-29T02:37:51.352Z,69.33
2023-03-29T02:40:21.549Z,69.04
2023-03-29T02:42:49.969Z,69.51
2023-03-29T02:45:18.827Z,69.04
2023-03-29T02:47:51.885Z,68.89
2023-03-29T02:50:21.112Z,68.92
2023-03-29T02:52:56.117Z,69.06
2023-03-29T02:55:26.383Z,69.31
2023-03-29T02:57:54.328Z,69.38
2023-03-29T03:00:23.373Z,69.55
2023-03-29T03:02:52.240Z,69.46
2023-03-29T03:05:20.887Z,69.46
2023-03-29T03:07:49.003Z,69.56
2023-03-29T03:10:17.322Z,69.25
2023-03-29T03:12:45.374Z,69.40
2023-03-29T03:15:13.572Z,68.81
2023-03-29T03:17:41.774Z,69.42
2023-03-29T03:20:14.361Z,69.17
2023-03-29T03:22:48.864Z,68.71
2023-03-29T03:25:19.621Z,69.20
2023-03-29T03:27:49.765Z,68.74
2023-03-29T03:30:19.139Z,68.89
2023-03-29T03:33:05.981Z,68.98
2023-03-29T03:35:49.250Z,68.55
2023-03-29T03:38:17.529Z,68.44
2023-03-29T03:40:54.099Z,68.70
2023-03-29T03:43:22.803Z,68.73
2023-03-29T03:45:51.612Z,68.63
2023-03-29T03:48:25.132Z,68.42
2023-03-29T03:51:16.229Z,68.27
2023-03-29T03:53:44.566Z,68.41
2023-03-29T03:56:13.521Z,68.53
2023-03-29T03:59:00.290Z,68.44
2023-03-29T04:01:29.323Z,68.67
2023-03-29T04:04:03.116Z,68.17
2023-03-29T04:06:32.624Z,68.33
2023-03-29T04:09:20.246Z,68.69
2023-03-29T04:11:56.183Z,68.53
2023-03-29T04:14:24.265Z,68.38
2023-03-29T04:17:05.749Z,68.33
2023-03-29T04:20:12.928Z,68.27
2023-03-29T04:22:41.985Z,68.10
2023-03-29T04:25:11.766Z,68.08
2023-03-29T04:27:51.256Z,68.02
2023-03-29T04:30:29.391Z,67.86
2023-03-29T04:33:12.322Z,68.05
2023-03-29T04:35:42.608Z,68.35
2023-03-29T04:38:14.346Z,68.17
2023-03-29T04:40:44.176Z,68.04
2023-03-29T04:43:18.659Z,67.78
2023-03-29T04:45:55.252Z,67.89
2023-03-29T04:48:42.150Z,67.97
2023-03-29T04:51:11.030Z,68.01
2023-03-29T04:53:38.955Z,67.98
2023-03-29T04:56:08.113Z,68.08
2023-03-29T04:59:01.751Z,68.31
2023-03-29T05:01:29.834Z,68.29
2023-03-29T05:03:59.468Z,68.44
2023-03-29T05:06:36.882Z,68.51
2023-03-29T05:09:08.979Z,68.45
2023-03-29T05:11:49.157Z,68.93
2023-03-29T05:14:17.436Z,68.89
2023-03-29T05:16:45.645Z,69.06
2023-03-29T05:19:13.745Z,69.17
2023-03-29T05:21:46.414Z,69.44
2023-03-29T05:24:17.846Z,69.45
2023-03-29T05:26:57.079Z,70.07
2023-03-29T05:29:25.664Z,69.64
2023-03-29T05:31:59.848Z,70.24
2023-03-29T05:34:29.792Z,69.87
2023-03-29T05:36:59.533Z,70.11
2023-03-29T05:39:29.243Z,70.41
2023-03-29T05:41:57.403Z,69.86
2023-03-29T05:44:29.517Z,70.04
2023-03-29T05:47:03.356Z,69.78
2023-03-29T05:49:31.997Z,69.63
2023-03-29T05:52:07.615Z,69.29
2023-03-29T05:54:36.261Z,68.87
2023-03-29T05:57:06.320Z,68.65
2023-03-29T05:59:34.640Z,68.40
2023-03-29T06:02:05.219Z,67.93
2023-03-29T06:04:34.089Z,67.77
2023-03-29T06:07:25.635Z,67.35
2023-03-29T06:10:12.500Z,66.91
2023-03-29T06:12:42.252Z,66.63
2023-03-29T06:15:10.879Z,66.79
2023-03-29T06:17:48.213Z,66.85
2023-03-29T06:20:17.608Z,66.26
2023-03-29T06:22:50.071Z,66.06
2023-03-29T06:25:19.660Z,65.22
2023-03-29T06:27:49.083Z,65.57
2023-03-29T06:30:19.071Z,64.97
2023-03-29T06:32:50.659Z,64.98
2023-03-29T06:35:54.229Z,64.46
2023-03-29T06:38:28.602Z,64.63
2023-03-29T06:41:07.855Z,64.56
2023-03-29T06:43:59.024Z,64.26
2023-03-29T06:46:33.346Z,63.94
2023-03-29T06:49:03.392Z,63.44
2023-03-29T06:51:36.797Z,63.98
2023-03-29T06:54:05.624Z,63.36
2023-03-29T06:56:34.325Z,63.07
2023-03-29T06:59:05.435Z,62.56
2023-03-29T07:01:38.916Z,61.62
2023-03-29T07:04:32.357Z,61.74
2023-03-29T07:07:20.757Z,61.94
2023-03-29T07:09:55.729Z,61.01
2023-03-29T07:12:27.595Z,61.00
2023-03-29T07:14:59.218Z,60.80
2023-03-29T07:17:41.085Z,60.57
2023-03-29T07:20:13.778Z,60.51
2023-03-29T07:22:58.888Z,60.49
2023-03-29T07:25:27.924Z,60.51
2023-03-29T07:27:56.086Z,60.38
2023-03-29T07:30:32.026Z,60.63
2023-03-29T07:33:12.585Z,60.36
2023-03-29T07:35:52.805Z,59.99
2023-03-29T07:38:21.226Z,59.77
2023-03-29T07:40:54.574Z,59.77
2023-03-29T07:43:42.427Z,59.62
2023-03-29T07:46:11.518Z,59.49
2023-03-29T07:48:40.131Z,59.33
2023-03-29T07:51:10.799Z,59.50
2023-03-29T07:54:06.503Z,59.41
2023-03-29T07:56:38.287Z,58.66
2023-03-29T07:59:16.684Z,58.46
2023-03-29T08:01:46.833Z,58.39
2023-03-29T08:04:36.701Z,57.12
2023-03-29T08:07:31.355Z,57.48
2023-03-29T08:10:05.670Z,56.80
2023-03-29T08:12:52.327Z,56.90
2023-03-29T08:15:22.032Z,55.96
2023-03-29T08:17:51.494Z,55.65
2023-03-29T08:20:20.039Z,56.24
2023-03-29T08:22:49.535Z,55.76
2023-03-29T08:25:36.823Z,55.09
2023-03-29T08:28:05.237Z,55.09
2023-03-29T08:30:42.526Z,54.70
2023-03-29T08:33:10.614Z,54.58
2023-03-29T08:35:38.707Z,54.80
2023-03-29T08:38:21.868Z,53.47
2023-03-29T08:40:52.065Z,53.80
2023-03-29T08:43:58.252Z,53.72
2023-03-29T08:47:15.915Z,53.73
2023-03-29T08:49:50.591Z,52.94
2023-03-29T08:52:42.995Z,53.34
2023-03-29T08:55:33.648Z,52.87
2023-03-29T09:09:33.869Z,53.06
2023-03-29T09:12:44.037Z,53.47
2023-03-29T09:15:25.136Z,53.94
2023-03-29T09:18:31.115Z,53.52
2023-03-29T09:21:03.375Z,53.36
2023-03-29T09:23:44.597Z,52.98
2023-03-29T09:26:32.830Z,53.41
2023-03-29T09:29:41.200Z,54.15
2023-03-29T09:32:22.550Z,52.72
2023-03-29T09:35:18.814Z,52.59
2023-03-29T09:37:50.554Z,52.34
2023-03-29T09:40:59.176Z,52.28
2023-03-29T09:43:41.510Z,51.74
2023-03-29T09:46:21.775Z,51.99
2023-03-29T09:48:50.838Z,51.80
2023-03-29T09:51:22.728Z,51.72
2023-03-29T09:53:50.737Z,52.29
2023-03-29T09:56:52.745Z,52.41
2023-03-29T09:59:22.183Z,51.75
2023-03-29T10:01:50.347Z,51.75
2023-03-29T10:04:18.914Z,51.35
2023-03-29T10:06:52.682Z,51.34
2023-03-29T10:09:24.161Z,51.72
2023-03-29T10:11:57.960Z,51.72
2023-03-29T10:14:37.111Z,51.77
2023-03-29T10:17:21.889Z,51.92
2023-03-29T10:19:57.122Z,51.78
2023-03-29T10:22:37.982Z,51.37
2023-03-29T10:25:14.066Z,51.22
2023-03-29T10:27:44.212Z,51.00
2023-03-29T10:30:21.446Z,50.69
2023-03-29T10:32:56.944Z,49.24
2023-03-29T10:35:30.122Z,49.26
2023-03-29T10:37:59.388Z,49.87
2023-03-29T10:40:29.458Z,49.36
2023-03-29T10:43:26.348Z,49.41
2023-03-29T10:45:56.903Z,48.87
2023-03-29T10:48:31.106Z,48.58
2023-03-29T10:51:05.849Z,48.28
2023-03-29T10:53:36.358Z,47.80
2023-03-29T10:56:13.909Z,47.82
2023-03-29T10:59:11.024Z,48.19
2023-03-29T11:01:44.709Z,47.93
2023-03-29T11:04:34.611Z,47.86
2023-03-29T11:07:22.778Z,47.07
2023-03-29T11:10:14.705Z,47.75
2023-03-29T11:13:01.020Z,47.88
2023-03-29T11:18:02.413Z,48.13
2023-03-29T11:20:54.786Z,47.69
2023-03-29T11:23:44.006Z,47.37
2023-03-29T11:26:53.577Z,47.17
2023-03-29T11:29:28.678Z,47.94
2023-03-29T11:32:42.841Z,48.13
2023-03-29T11:35:23.301Z,47.37
2023-03-29T11:38:05.519Z,47.04
2023-03-29T11:41:01.695Z,47.28
2023-03-29T11:43:36.046Z,46.65
2023-03-29T11:46:41.941Z,47.55
2023-03-29T11:49:20.142Z,47.18
2023-03-29T11:52:06.183Z,47.70
2023-03-29T11:55:09.129Z,47.34
2023-03-29T11:57:46.452Z,47.12
2023-03-29T12:00:30.491Z,46.81
2023-03-29T12:03:07.226Z,47.19
2023-03-29T12:05:43.373Z,47.05
2023-03-29T12:08:18.864Z,46.96
2023-03-29T12:11:07.452Z,47.22
2023-03-29T12:13:44.839Z,47.52
2023-03-29T12:16:23.064Z,47.74
2023-03-29T12:18:56.452Z,46.88
2023-03-29T12:21:28.512Z,46.65
2023-03-29T12:23:58.183Z,46.92
2023-03-29T12:26:51.074Z,46.94
2023-03-29T12:29:43.848Z,46.69
2023-03-29T12:32:30.596Z,46.69
2023-03-29T12:35:25.945Z,47.63
2023-03-29T12:38:19.364Z,47.40
2023-03-29T12:41:19.258Z,47.29
2023-03-29T12:44:07.834Z,47.42
2023-03-29T12:46:44.268Z,47.14
2023-03-29T12:49:26.587Z,46.02
2023-03-29T12:51:57.922Z,45.65
2023-03-29T12:54:34.001Z,45.67
2023-03-29T12:57:26.412Z,45.51
2023-03-29T12:59:55.117Z,45.83
2023-03-29T13:02:23.114Z,46.45
2023-03-29T13:04:58.168Z,46.35
2023-03-29T13:07:29.064Z,46.31
2023-03-29T13:10:25.386Z,46.02
2023-03-29T13:12:54.617Z,45.06
2023-03-29T13:15:25.329Z,45.75
2023-03-29T13:18:15.222Z,45.81
2023-03-29T13:20:53.878Z,46.11
2023-03-29T13:23:54.984Z,45.98
2023-03-29T13:26:54.016Z,45.86
2023-03-29T13:29:40.038Z,46.09
2023-03-29T13:32:30.505Z,45.90
2023-03-29T13:36:03.622Z,46.08
2023-03-29T13:38:32.177Z,46.11
2023-03-29T13:41:07.436Z,45.77
2023-03-29T13:43:49.896Z,44.83
2023-03-29T13:46:40.283Z,45.03
2023-03-29T13:49:24.650Z,45.63
2023-03-29T13:52:16.365Z,45.37
2023-03-29T13:54:47.516Z,45.21
2023-03-29T13:57:32.413Z,46.03
2023-03-29T14:00:13.625Z,45.14
2023-03-29T14:02:48.084Z,44.54
2023-03-29T14:05:21.734Z,44.41
2023-03-29T14:07:53.439Z,44.94
2023-03-29T14:10:35.543Z,45.68
2023-03-29T14:13:04.654Z,45.79
2023-03-29T14:15:50.961Z,45.70
2023-03-29T14:18:23.255Z,45.95
2023-03-29T14:20:55.101Z,46.13
2023-03-29T14:23:26.125Z,46.34
2023-03-29T14:25:54.040Z,46.51
2023-03-29T14:28:25.086Z,46.65
2023-03-29T14:30:53.622Z,46.74
2023-03-29T14:33:34.631Z,47.01
2023-03-29T14:36:04.378Z,47.34
2023-03-29T14:38:32.877Z,47.60
2023-03-29T14:41:03.172Z,47.61
2023-03-29T14:43:32.200Z,47.95
2023-03-29T14:46:04.745Z,48.08
2023-03-29T14:48:34.913Z,48.21
2023-03-29T14:51:04.080Z,48.49
2023-03-29T14:53:34.499Z,48.58
2023-03-29T14:56:03.532Z,48.75
2023-03-29T14:58:34.416Z,48.84
2023-03-29T15:01:22.948Z,48.95
2023-03-29T15:04:02.228Z,49.03
2023-03-29T15:06:31.636Z,48.97
2023-03-29T15:09:06.556Z,49.11
2023-03-29T15:11:35.940Z,49.13
2023-03-29T15:14:12.624Z,49.07
2023-03-29T15:16:43.484Z,49.10
2023-03-29T15:19:17.955Z,49.21
2023-03-29T15:21:49.227Z,49.36
2023-03-29T15:24:28.070Z,49.51
2023-03-29T15:27:05.544Z,49.68
2023-03-29T15:29:41.751Z,49.77
2023-03-29T15:32:11.617Z,49.78
2023-03-29T15:34:39.750Z,49.82
2023-03-29T15:37:12.358Z,49.93
2023-03-29T15:39:44.533Z,49.80
2023-03-29T15:42:12.684Z,49.80
2023-03-29T15:44:41.240Z,49.77
2023-03-29T15:47:11.006Z,49.87
2023-03-29T15:49:39.644Z,49.88
2023-03-29T15:52:07.573Z,49.89
2023-03-29T15:54:37.294Z,50.07
2023-03-29T15:57:07.726Z,50.08
2023-03-29T16:08:36.520Z,50.29
2023-03-29T16:11:06.856Z,50.42
2023-03-29T16:13:35.573Z,50.51
2023-03-29T16:16:03.959Z,50.54
2023-03-29T16:18:32.192Z,50.85
2023-03-29T16:21:01.492Z,50.69
2023-03-29T16:23:29.405Z,50.61
2023-03-29T16:25:59.289Z,50.56
2023-03-29T16:28:28.361Z,50.54
2023-03-29T16:30:56.365Z,50.49
2023-03-29T16:33:24.362Z,50.63
2023-03-29T16:35:52.421Z,50.71
2023-03-29T16:38:21.797Z,50.66
2023-03-29T16:40:50.930Z,50.78
2023-03-29T16:43:19.014Z,50.72
2023-03-29T16:45:47.003Z,50.99
2023-03-29T16:48:18.070Z,50.93
2023-03-29T16:50:50.892Z,50.96
2023-03-29T16:53:20.004Z,51.03
2023-03-29T16:55:48.404Z,51.10
2023-03-29T16:58:17.172Z,51.12
2023-03-29T17:00:48.147Z,51.00
2023-03-29T17:03:17.031Z,51.08
2023-03-29T17:05:52.114Z,51.08
2023-03-29T17:08:21.530Z,51.08
2023-03-29T17:10:54.241Z,51.26
2023-03-29T17:13:24.062Z,51.27
2023-03-29T17:15:54.133Z,51.35
2023-03-29T17:18:24.658Z,51.50
2023-03-29T17:20:56.726Z,51.64
2023-03-29T17:23:25.700Z,51.73
2023-03-29T17:25:57.220Z,51.71
2023-03-29T17:28:25.273Z,51.85
2023-03-29T17:30:53.286Z,52.10
2023-03-29T17:33:22.800Z,52.04
2023-03-29T17:35:51.477Z,52.10
2023-03-29T17:38:19.722Z,52.13
2023-03-29T17:40:53.087Z,52.05
2023-03-29T17:43:21.596Z,52.25
2023-03-29T17:45:53.060Z,52.41
2023-03-29T17:48:21.643Z,52.39
2023-03-29T17:50:49.880Z,52.49
2023-03-29T17:53:37.508Z,52.51
2023-03-29T17:56:07.101Z,52.66
2023-03-29T17:58:35.710Z,52.51
2023-03-29T18:01:10.963Z,52.70
2023-03-29T18:03:39.472Z,53.09
2023-03-29T18:06:08.780Z,53.11
2023-03-29T18:08:36.761Z,53.24
2023-03-29T18:11:11.896Z,53.45
2023-03-29T18:13:40.033Z,53.17
2023-03-29T18:16:09.333Z,53.74
2023-03-29T18:18:38.582Z,53.71
2023-03-29T18:21:10.151Z,53.82
2023-03-29T18:23:40.011Z,53.64
2023-03-29T18:26:09.497Z,53.91
2023-03-29T18:28:37.666Z,53.67
2023-03-29T18:31:08.703Z,54.03
2023-03-29T18:33:36.703Z,54.09
2023-03-29T18:36:10.843Z,54.25
2023-03-29T18:38:43.403Z,54.35
2023-03-29T18:41:13.946Z,54.34
2023-03-29T18:43:43.283Z,54.44
2023-03-29T18:46:11.629Z,54.60
2023-03-29T18:48:40.959Z,54.55
2023-03-29T18:51:11.985Z,54.74
2023-03-29T18:53:43.040Z,54.71
2023-03-29T18:56:11.443Z,54.60
2023-03-29T18:58:39.826Z,54.87
2023-03-29T19:01:08.166Z,55.05
2023-03-29T19:03:37.035Z,54.96
2023-03-29T19:06:06.212Z,55.07
2023-03-29T19:08:37.521Z,55.09
2023-03-29T19:11:08.685Z,55.19
2023-03-29T19:13:36.949Z,55.24
2023-03-29T19:16:05.502Z,55.25
2023-03-29T19:18:33.880Z,55.18
2023-03-29T19:21:02.549Z,55.25
2023-03-29T19:23:30.756Z,55.55
2023-03-29T19:26:02.753Z,55.34
2023-03-29T19:28:32.606Z,55.45
2023-03-29T19:31:02.159Z,55.36
2023-03-29T19:33:30.556Z,55.28
2023-03-29T19:35:58.666Z,55.38
2023-03-29T19:38:26.689Z,55.41
2023-03-29T19:40:54.721Z,55.46
2023-03-29T19:43:24.917Z,55.81
2023-03-29T19:45:52.903Z,55.73
2023-03-29T19:48:23.471Z,55.48
2023-03-29T19:50:52.244Z,55.53
2023-03-29T19:53:20.215Z,55.58
2023-03-29T19:55:49.430Z,55.55
2023-03-29T19:58:17.483Z,55.64
2023-03-29T20:00:45.831Z,55.80
2023-03-29T20:03:15.738Z,55.69
2023-03-29T20:05:43.932Z,55.74
2023-03-29T20:08:12.107Z,55.79
2023-03-29T20:10:40.270Z,55.61
2023-03-29T20:13:08.303Z,55.94
2023-03-29T20:15:36.421Z,55.80
2023-03-29T20:18:06.524Z,55.65
2023-03-29T20:20:38.405Z,55.87
2023-03-29T20:23:06.485Z,55.88
2023-03-29T20:25:37.470Z,55.73
2023-03-29T20:28:06.587Z,55.55
2023-03-29T20:30:37.631Z,55.67
2023-03-29T20:33:07.410Z,55.66
2023-03-29T20:35:35.524Z,55.58
2023-03-29T20:38:03.714Z,55.62
2023-03-29T20:40:31.741Z,55.76
2023-03-29T20:42:59.651Z,55.90
2023-03-29T20:45:27.697Z,55.90
2023-03-29T20:48:02.163Z,56.04
2023-03-29T20:50:30.282Z,56.11
2023-03-29T20:53:02.377Z,56.10
2023-03-29T20:55:33.311Z,56.29
2023-03-29T20:58:02.391Z,56.53
2023-03-29T21:00:32.769Z,56.54
2023-03-29T21:03:03.742Z,56.75
2023-03-29T21:05:33.301Z,56.91
2023-03-29T21:08:02.515Z,56.81
2023-03-29T21:10:30.963Z,56.78
2023-03-29T21:13:02.611Z,57.20
2023-03-29T21:15:31.981Z,57.26
2023-03-29T21:18:00.152Z,57.18
2023-03-29T21:20:28.227Z,57.12
2023-03-29T21:22:56.264Z,57.30
2023-03-29T21:25:24.258Z,57.37
2023-03-29T21:27:52.268Z,57.40
2023-03-29T21:30:20.182Z,57.58
2023-03-29T21:32:48.282Z,57.62
2023-03-29T21:35:16.629Z,57.59
2023-03-29T21:37:45.015Z,57.68
2023-03-29T21:40:13.416Z,57.83
2023-03-29T21:42:41.382Z,57.75
2023-03-29T21:45:11.418Z,57.86
2023-03-29T21:47:39.488Z,58.14
2023-03-29T21:50:07.735Z,58.04
2023-03-29T21:52:37.790Z,58.20
2023-03-29T21:55:06.746Z,58.27
2023-03-29T21:57:34.668Z,58.16
2023-03-29T22:00:03.689Z,58.41
2023-03-29T22:02:38.726Z,58.46
2023-03-29T22:05:13.941Z,58.51
2023-03-29T22:07:42.095Z,58.47
2023-03-29T22:10:13.243Z,58.73
2023-03-29T22:12:41.432Z,58.65
2023-03-29T22:15:13.202Z,58.77
2023-03-29T22:17:43.107Z,58.77
2023-03-29T22:20:14.968Z,58.48
2023-03-29T22:22:49.839Z,58.58
2023-03-29T22:25:19.414Z,58.80
2023-03-29T22:27:48.096Z,58.77
2023-03-29T22:30:17.394Z,58.82
2023-03-29T22:32:45.509Z,58.72
2023-03-29T22:35:13.597Z,58.87
2023-03-29T22:37:43.428Z,59.03
2023-03-29T22:40:12.486Z,58.99
2023-03-29T22:42:40.680Z,58.89
2023-03-29T22:45:09.255Z,59.05
2023-03-29T22:47:41.609Z,59.13
2023-03-29T22:50:10.317Z,59.21
2023-03-29T22:52:38.269Z,59.19
2023-03-29T22:55:06.744Z,59.41
2023-03-29T22:57:34.782Z,59.28
2023-03-29T23:00:06.958Z,59.41
2023-03-29T23:02:34.954Z,59.43
2023-03-29T23:05:03.036Z,59.46
2023-03-29T23:07:31.030Z,59.40
2023-03-29T23:09:59.123Z,59.51
2023-03-29T23:12:27.140Z,59.50
2023-03-29T23:14:55.996Z,59.54
2023-03-29T23:17:24.022Z,59.55
2023-03-29T23:19:52.101Z,59.76
2023-03-29T23:22:20.014Z,59.75
2023-03-29T23:24:48.146Z,59.81
2023-03-29T23:27:16.480Z,59.99
2023-03-29T23:29:45.692Z,59.72
2023-03-29T23:32:15.751Z,59.83
2023-03-29T23:34:44.599Z,59.94
2023-03-29T23:37:12.604Z,60.04
2023-03-29T23:39:40.651Z,60.12
2023-03-29T23:42:08.584Z,60.21
2023-03-29T23:44:37.783Z,60.24
2023-03-29T23:47:06.286Z,60.21
2023-03-29T23:49:34.391Z,60.19
2023-03-29T23:52:02.720Z,60.27
2023-03-29T23:54:31.893Z,60.19
2023-03-29T23:57:00.339Z,60.39
2023-03-29T23:59:30.735Z,60.36
